createdAt,value
2023-05-08T00:02:03.001Z,14.15
2023-05-08T00:04:36.607Z,14.12
2023-05-08T00:07:04.935Z,14.09
2023-05-08T00:09:33.220Z,14.07
2023-05-08T00:12:01.529Z,14.06
2023-05-08T00:14:29.672Z,14.09
2023-05-08T00:16:59.332Z,14.03
2023-05-08T00:19:27.489Z,14.01
2023-05-08T00:21:55.539Z,13.98
2023-05-08T00:24:23.594Z,13.95
2023-05-08T00:26:51.822Z,13.96
2023-05-08T00:29:19.934Z,13.94
2023-05-08T00:31:47.977Z,13.93
2023-05-08T00:34:17.703Z,13.88
2023-05-08T00:36:45.731Z,13.86
2023-05-08T00:39:14.150Z,13.81
2023-05-08T00:41:42.427Z,13.77
2023-05-08T00:44:10.766Z,13.72
2023-05-08T00:46:39.227Z,13.68
2023-05-08T00:49:35.672Z,13.61
2023-05-08T00:52:08.519Z,13.58
2023-05-08T00:54:37.381Z,13.54
2023-05-08T00:57:07.800Z,13.50
2023-05-08T00:59:37.024Z,13.45
2023-05-08T01:02:06.061Z,13.42
2023-05-08T01:04:36.388Z,13.39
2023-05-08T01:07:04.610Z,13.35
2023-05-08T01:09:32.954Z,13.34
2023-05-08T01:12:09.534Z,13.27
2023-05-08T01:14:51.106Z,13.22
2023-05-08T01:17:25.919Z,13.20
2023-05-08T01:20:10.640Z,13.14
2023-05-08T01:23:01.674Z,13.12
2023-05-08T01:26:08.549Z,13.06
2023-05-08T01:29:09.742Z,13.02
2023-05-08T01:31:51.668Z,12.98
2023-05-08T01:34:26.008Z,12.95
2023-05-08T01:36:59.497Z,12.92
2023-05-08T01:39:36.137Z,12.87
2023-05-08T01:42:09.256Z,12.86
2023-05-08T01:44:42.866Z,12.83
2023-05-08T01:47:16.506Z,12.79
2023-05-08T01:49:51.756Z,12.78
2023-05-08T01:52:30.900Z,12.74
2023-05-08T01:55:02.878Z,12.70
2023-05-08T01:57:34.491Z,12.67
2023-05-08T02:00:05.355Z,12.63
2023-05-08T02:02:38.659Z,12.62
2023-05-08T02:05:11.971Z,12.59
2023-05-08T02:07:42.204Z,12.56
2023-05-08T02:10:12.652Z,12.53
2023-05-08T02:12:42.363Z,12.50
2023-05-08T02:15:13.787Z,12.48
2023-05-08T02:17:43.213Z,12.46
2023-05-08T02:20:16.961Z,12.42
2023-05-08T02:22:46.997Z,12.40
2023-05-08T02:25:17.199Z,12.36
2023-05-08T02:27:49.976Z,12.35
2023-05-08T02:30:20.417Z,12.33
2023-05-08T02:32:51.085Z,12.32
2023-05-08T02:35:21.289Z,12.28
2023-05-08T02:37:53.479Z,12.26
2023-05-08T02:40:25.537Z,12.23
2023-05-08T02:43:43.340Z,12.19
2023-05-08T02:46:16.862Z,12.15
2023-05-08T02:48:52.379Z,12.14
2023-05-08T02:51:31.229Z,12.09
2023-05-08T02:54:10.511Z,12.07
2023-05-08T02:56:56.684Z,12.03
2023-05-08T02:59:33.644Z,12.00
2023-05-08T03:02:23.518Z,11.95
2023-05-08T03:04:57.333Z,11.92
2023-05-08T03:08:21.048Z,11.88
2023-05-08T03:10:59.002Z,11.85
2023-05-08T03:13:45.182Z,11.83
2023-05-08T03:16:29.803Z,11.81
2023-05-08T03:19:15.598Z,11.77
2023-05-08T03:21:59.100Z,11.74
2023-05-08T03:24:46.659Z,11.73
2023-05-08T03:27:19.341Z,11.70
2023-05-08T03:29:48.765Z,11.68
2023-05-08T03:33:03.041Z,11.67
2023-05-08T03:35:58.365Z,11.64
2023-05-08T03:38:37.148Z,11.64
2023-05-08T03:41:21.892Z,11.62
2023-05-08T03:46:59.755Z,11.60
2023-05-08T03:50:00.194Z,11.58
2023-05-08T03:52:34.113Z,11.56
2023-05-08T03:55:07.812Z,11.54
2023-05-08T03:57:52.475Z,11.52
2023-05-08T04:00:54.431Z,11.49
2023-05-08T04:08:19.913Z,11.45
2023-05-08T04:11:10.426Z,11.43
2023-05-08T04:14:03.607Z,11.41
2023-05-08T04:16:58.192Z,11.40
2023-05-08T04:19:45.282Z,11.38
2023-05-08T04:22:37.965Z,11.39
2023-05-08T04:25:34.424Z,11.39
2023-05-08T04:28:54.223Z,11.37
2023-05-08T04:32:38.845Z,11.38
2023-05-08T04:36:09.849Z,11.40
2023-05-08T04:46:13.414Z,11.47
2023-05-08T04:50:10.709Z,11.49
2023-05-08T04:53:53.302Z,11.52
2023-05-08T04:57:02.796Z,11.53
2023-05-08T05:09:15.357Z,11.65
2023-05-08T05:19:44.150Z,11.83
2023-05-08T05:23:08.100Z,11.90
2023-05-08T05:26:19.423Z,11.98
2023-05-08T05:34:11.273Z,12.16
2023-05-08T05:37:05.509Z,12.20
2023-05-08T05:40:09.868Z,12.31
2023-05-08T05:46:51.005Z,12.41
2023-05-08T05:49:47.658Z,12.47
2023-05-08T05:53:09.443Z,12.51
2023-05-08T05:55:46.912Z,12.54
2023-05-08T05:58:58.831Z,12.63
2023-05-08T06:01:37.146Z,12.63
2023-05-08T06:04:09.564Z,12.65
2023-05-08T06:06:37.841Z,12.73
2023-05-08T06:09:07.508Z,12.70
2023-05-08T06:12:00.040Z,12.76
2023-05-08T06:14:43.434Z,12.80
2023-05-08T06:17:22.521Z,12.82
2023-05-08T06:19:56.096Z,12.93
2023-05-08T06:22:25.797Z,12.98
2023-05-08T06:25:03.110Z,13.05
2023-05-08T06:28:22.673Z,13.19
2023-05-08T06:30:51.475Z,13.33
2023-05-08T06:33:30.614Z,13.30
2023-05-08T06:36:06.129Z,13.36
2023-05-08T06:38:34.428Z,13.40
2023-05-08T06:41:05.129Z,13.45
2023-05-08T06:43:33.476Z,13.50
2023-05-08T06:46:07.048Z,13.63
2023-05-08T06:48:40.136Z,13.67
2023-05-08T06:54:27.477Z,13.72
2023-05-08T06:56:55.704Z,13.84
2023-05-08T06:59:24.414Z,13.86
2023-05-08T07:01:52.488Z,14.01
2023-05-08T07:04:21.925Z,13.95
2023-05-08T07:06:50.044Z,13.94
2023-05-08T07:09:19.886Z,14.00
2023-05-08T07:11:48.143Z,13.91
2023-05-08T07:14:16.247Z,13.92
2023-05-08T07:17:09.969Z,14.00
2023-05-08T07:19:39.729Z,14.15
2023-05-08T07:22:07.866Z,14.20
2023-05-08T07:24:35.861Z,14.23
2023-05-08T07:27:03.830Z,14.29
2023-05-08T07:29:57.508Z,14.26
2023-05-08T07:32:25.597Z,14.17
2023-05-08T07:34:54.893Z,14.38
2023-05-08T07:37:24.015Z,14.50
2023-05-08T07:39:51.949Z,14.57
2023-05-08T07:42:19.912Z,14.61
2023-05-08T07:44:54.434Z,14.66
2023-05-08T07:47:23.444Z,14.70
2023-05-08T07:49:51.614Z,14.68
2023-05-08T07:52:20.929Z,14.60
2023-05-08T07:54:48.933Z,14.60
2023-05-08T07:57:17.108Z,14.54
2023-05-08T07:59:45.161Z,14.45
2023-05-08T08:02:13.207Z,14.52
2023-05-08T08:04:41.162Z,14.55
2023-05-08T08:07:09.082Z,14.46
2023-05-08T08:09:38.421Z,14.50
2023-05-08T08:12:06.580Z,14.36
2023-05-08T08:14:34.462Z,14.34
2023-05-08T08:17:02.561Z,14.27
2023-05-08T08:19:30.599Z,14.25
2023-05-08T08:21:58.558Z,14.45
2023-05-08T08:24:26.628Z,14.43
2023-05-08T08:26:55.977Z,14.35
2023-05-08T08:29:24.308Z,14.49
2023-05-08T08:31:52.412Z,14.58
2023-05-08T08:34:20.363Z,14.67
2023-05-08T08:36:48.624Z,14.68
2023-05-08T08:39:17.135Z,14.65
2023-05-08T08:41:45.122Z,14.62
2023-05-08T08:44:14.462Z,14.56
2023-05-08T08:46:50.899Z,14.58
2023-05-08T08:49:20.173Z,14.65
2023-05-08T08:51:52.299Z,14.68
2023-05-08T08:54:24.363Z,14.70
2023-05-08T08:56:54.352Z,14.81
2023-05-08T08:59:26.822Z,14.97
2023-05-08T09:01:57.566Z,15.10
2023-05-08T09:04:27.328Z,15.09
2023-05-08T09:06:55.700Z,15.38
2023-05-08T09:09:24.286Z,15.40
2023-05-08T09:11:53.514Z,15.50
2023-05-08T09:14:25.826Z,15.68
2023-05-08T09:16:54.888Z,15.85
2023-05-08T09:19:25.621Z,15.79
2023-05-08T09:21:55.752Z,15.77
2023-05-08T09:24:24.611Z,15.66
2023-05-08T09:26:52.518Z,15.68
2023-05-08T09:29:22.223Z,15.67
2023-05-08T09:31:53.418Z,15.70
2023-05-08T09:34:27.149Z,15.69
2023-05-08T09:36:56.314Z,15.71
2023-05-08T09:39:25.857Z,15.68
2023-05-08T09:42:00.944Z,15.51
2023-05-08T09:44:29.077Z,15.49
2023-05-08T09:47:12.869Z,15.47
2023-05-08T09:49:41.244Z,15.57
2023-05-08T09:52:09.596Z,15.52
2023-05-08T09:54:37.583Z,15.54
2023-05-08T09:57:13.235Z,15.59
2023-05-08T09:59:41.433Z,15.47
2023-05-08T10:02:16.286Z,15.55
2023-05-08T10:04:44.448Z,15.48
2023-05-08T10:07:12.438Z,15.59
2023-05-08T10:09:50.175Z,15.58
2023-05-08T10:12:19.672Z,15.52
2023-05-08T10:14:47.657Z,15.55
2023-05-08T10:17:26.196Z,15.58
2023-05-08T10:19:59.233Z,15.55
2023-05-08T10:22:28.576Z,15.52
2023-05-08T10:24:58.553Z,15.55
2023-05-08T10:27:35.031Z,15.55
2023-05-08T10:30:05.284Z,15.45
2023-05-08T10:32:40.643Z,15.42
2023-05-08T10:35:11.714Z,15.40
2023-05-08T10:37:42.255Z,15.44
2023-05-08T10:40:12.098Z,15.54
2023-05-08T10:42:41.047Z,15.51
2023-05-08T10:45:10.727Z,15.65
2023-05-08T10:47:49.663Z,15.68
2023-05-08T10:50:48.405Z,15.56
2023-05-08T10:53:21.682Z,15.74
2023-05-08T10:55:52.907Z,15.69
2023-05-08T10:58:31.378Z,15.79
2023-05-08T11:01:13.757Z,15.91
2023-05-08T11:03:46.078Z,15.99
2023-05-08T11:06:15.529Z,15.90
2023-05-08T11:08:51.578Z,15.89
2023-05-08T11:11:31.521Z,16.01
2023-05-08T11:14:10.765Z,16.01
2023-05-08T11:17:08.205Z,15.99
2023-05-08T11:19:38.675Z,16.05
2023-05-08T11:22:29.032Z,16.04
2023-05-08T11:25:02.479Z,16.00
2023-05-08T11:28:04.124Z,15.91
2023-05-08T11:30:57.522Z,15.86
2023-05-08T11:33:31.490Z,15.81
2023-05-08T11:36:02.312Z,15.80
2023-05-08T11:38:35.976Z,15.72
2023-05-08T11:41:06.323Z,15.65
2023-05-08T11:44:14.867Z,15.73
2023-05-08T11:46:46.222Z,15.63
2023-05-08T11:49:17.282Z,15.66
2023-05-08T11:51:49.756Z,15.72
2023-05-08T11:54:19.745Z,15.59
2023-05-08T11:56:51.131Z,15.52
2023-05-08T11:59:19.378Z,15.51
2023-05-08T12:02:06.804Z,15.57
2023-05-08T12:05:04.538Z,15.46
2023-05-08T12:07:34.163Z,15.42
2023-05-08T12:10:02.733Z,15.38
2023-05-08T12:12:40.271Z,15.40
2023-05-08T12:15:09.534Z,15.38
2023-05-08T12:17:38.223Z,15.37
2023-05-08T12:20:14.690Z,15.37
2023-05-08T12:22:51.642Z,15.40
2023-05-08T12:25:20.588Z,15.23
2023-05-08T12:28:14.384Z,15.20
2023-05-08T12:30:42.470Z,15.25
2023-05-08T12:33:11.957Z,15.28
2023-05-08T12:35:40.351Z,15.31
2023-05-08T12:38:10.760Z,15.41
2023-05-08T12:40:42.685Z,15.37
2023-05-08T12:43:11.486Z,15.39
2023-05-08T12:45:40.447Z,15.27
2023-05-08T12:48:09.955Z,15.20
2023-05-08T12:50:40.120Z,15.28
2023-05-08T12:53:11.185Z,15.36
2023-05-08T12:56:30.175Z,15.38
2023-05-08T12:59:00.693Z,15.37
2023-05-08T13:01:28.854Z,15.31
2023-05-08T13:04:02.110Z,15.36
2023-05-08T13:06:30.450Z,15.38
2023-05-08T13:08:59.783Z,15.39
2023-05-08T13:11:33.085Z,15.20
2023-05-08T13:14:01.232Z,15.26
2023-05-08T13:16:29.425Z,15.23
2023-05-08T13:18:57.384Z,15.33
2023-05-08T13:21:27.626Z,15.37
2023-05-08T13:23:56.909Z,15.39
2023-05-08T13:26:26.474Z,15.34
2023-05-08T13:28:56.404Z,15.50
2023-05-08T13:31:24.800Z,15.32
2023-05-08T13:33:52.808Z,15.37
2023-05-08T13:36:21.033Z,15.46
2023-05-08T13:38:49.000Z,15.48
2023-05-08T13:41:16.929Z,15.49
2023-05-08T13:43:46.287Z,15.55
2023-05-08T13:46:14.563Z,15.52
2023-05-08T13:48:42.535Z,15.60
2023-05-08T13:51:10.494Z,15.72
2023-05-08T13:53:38.419Z,15.61
2023-05-08T13:56:06.729Z,15.63
2023-05-08T13:58:34.787Z,15.68
2023-05-08T14:01:17.719Z,15.72
2023-05-08T14:03:52.272Z,15.69
2023-05-08T14:06:20.583Z,15.75
2023-05-08T14:08:51.096Z,15.80
2023-05-08T14:11:20.850Z,15.83
2023-05-08T14:13:48.802Z,15.70
2023-05-08T14:16:18.184Z,15.73
2023-05-08T14:18:46.169Z,15.80
2023-05-08T14:21:14.130Z,15.72
2023-05-08T14:23:42.755Z,15.82
2023-05-08T14:26:10.667Z,15.92
2023-05-08T14:28:38.632Z,15.99
2023-05-08T14:31:06.825Z,16.05
2023-05-08T14:33:36.790Z,16.07
2023-05-08T14:36:04.937Z,16.09
2023-05-08T14:38:32.949Z,15.94
2023-05-08T14:41:04.246Z,15.98
2023-05-08T14:43:32.821Z,16.09
2023-05-08T14:46:01.037Z,16.13
2023-05-08T14:48:29.061Z,16.15
2023-05-08T14:50:58.739Z,16.11
2023-05-08T14:53:26.885Z,16.22
2023-05-08T14:55:55.209Z,16.36
2023-05-08T14:58:23.412Z,16.27
2023-05-08T15:00:51.338Z,16.29
2023-05-08T15:03:19.673Z,16.32
2023-05-08T15:05:48.442Z,16.20
2023-05-08T15:08:17.902Z,16.24
2023-05-08T15:10:45.959Z,16.30
2023-05-08T15:13:14.206Z,16.32
2023-05-08T15:15:42.235Z,16.32
2023-05-08T15:18:10.197Z,16.21
2023-05-08T15:20:38.149Z,16.24
2023-05-08T15:23:06.594Z,15.94
2023-05-08T15:25:36.484Z,16.00
2023-05-08T15:28:04.621Z,15.80
2023-05-08T15:30:32.583Z,15.90
2023-05-08T15:33:00.646Z,15.91
2023-05-08T15:35:28.666Z,15.83
2023-05-08T15:37:56.837Z,15.67
2023-05-08T15:40:25.185Z,15.51
2023-05-08T15:42:54.764Z,15.60
2023-05-08T15:45:22.968Z,15.55
2023-05-08T15:47:51.345Z,15.52
2023-05-08T15:50:19.423Z,15.41
2023-05-08T15:52:47.713Z,15.36
2023-05-08T15:55:17.581Z,15.36
2023-05-08T15:57:45.538Z,15.17
2023-05-08T16:00:15.962Z,15.26
2023-05-08T16:02:43.907Z,15.22
2023-05-08T16:05:12.094Z,15.20
2023-05-08T16:07:40.274Z,15.17
2023-05-08T16:10:09.914Z,15.26
2023-05-08T16:12:37.976Z,15.17
2023-05-08T16:15:07.134Z,14.99
2023-05-08T16:17:36.500Z,15.01
2023-05-08T16:20:05.184Z,14.97
2023-05-08T16:22:33.264Z,15.00
2023-05-08T16:25:01.272Z,15.00
2023-05-08T16:27:29.505Z,15.07
2023-05-08T16:29:57.475Z,14.97
2023-05-08T16:32:27.139Z,14.97
2023-05-08T16:34:56.594Z,14.88
2023-05-08T16:37:24.505Z,14.86
2023-05-08T16:39:52.587Z,14.88
2023-05-08T16:42:20.934Z,14.82
2023-05-08T16:44:48.977Z,14.78
2023-05-08T16:47:17.044Z,14.71
2023-05-08T16:49:45.488Z,14.67
2023-05-08T16:52:17.878Z,14.67
2023-05-08T16:54:45.784Z,14.67
2023-05-08T16:57:13.734Z,14.58
2023-05-08T16:59:42.463Z,14.63
2023-05-08T17:02:11.952Z,14.71
2023-05-08T17:04:39.967Z,14.58
2023-05-08T17:07:08.145Z,14.53
2023-05-08T17:09:37.416Z,14.58
2023-05-08T17:12:06.428Z,14.48
2023-05-08T17:14:37.995Z,14.48
2023-05-08T17:17:06.137Z,14.61
2023-05-08T17:19:34.183Z,14.56
2023-05-08T17:22:02.559Z,14.53
2023-05-08T17:24:31.010Z,14.57
2023-05-08T17:27:00.397Z,14.47
2023-05-08T17:29:28.447Z,14.51
2023-05-08T17:31:56.439Z,14.61
2023-05-08T17:34:24.497Z,14.48
2023-05-08T17:36:54.435Z,14.48
2023-05-08T17:39:23.120Z,14.37
2023-05-08T17:41:51.455Z,14.40
2023-05-08T17:44:22.635Z,14.40
2023-05-08T17:46:50.990Z,14.38
2023-05-08T17:49:19.584Z,14.39
2023-05-08T17:51:47.665Z,14.48
2023-05-08T17:54:15.674Z,14.39
2023-05-08T17:56:44.413Z,14.31
2023-05-08T17:59:12.581Z,14.37
2023-05-08T18:01:42.285Z,14.30
2023-05-08T18:04:12.935Z,14.36
2023-05-08T18:06:43.490Z,14.36
2023-05-08T18:09:11.619Z,14.44
2023-05-08T18:11:39.769Z,14.36
2023-05-08T18:14:07.916Z,14.33
2023-05-08T18:16:35.925Z,14.25
2023-05-08T18:19:05.572Z,14.35
2023-05-08T18:21:34.094Z,14.30
2023-05-08T18:24:02.410Z,14.30
2023-05-08T18:26:30.937Z,14.41
2023-05-08T18:28:59.067Z,14.38
2023-05-08T18:31:27.434Z,14.33
2023-05-08T18:33:55.698Z,14.16
2023-05-08T18:36:25.880Z,14.24
2023-05-08T18:38:54.323Z,14.38
2023-05-08T18:41:23.420Z,14.19
2023-05-08T18:43:51.484Z,14.20
2023-05-08T18:46:19.490Z,14.23
2023-05-08T18:48:47.546Z,14.23
2023-05-08T18:51:15.471Z,14.22
2023-05-08T18:53:44.799Z,14.16
2023-05-08T18:56:13.015Z,14.17
2023-05-08T18:58:41.155Z,14.19
2023-05-08T19:01:10.460Z,14.15
2023-05-08T19:03:39.655Z,14.28
2023-05-08T19:06:07.839Z,14.19
2023-05-08T19:08:39.786Z,14.17
2023-05-08T19:11:10.533Z,14.23
2023-05-08T19:13:43.620Z,14.24
2023-05-08T19:16:12.946Z,14.24
2023-05-08T19:18:41.004Z,14.12
2023-05-08T19:21:10.865Z,14.23
2023-05-08T19:23:41.706Z,14.22
2023-05-08T19:26:16.639Z,14.20
2023-05-08T19:28:47.543Z,14.18
2023-05-08T19:31:15.987Z,14.24
2023-05-08T19:33:44.330Z,14.18
2023-05-08T19:36:12.392Z,14.25
2023-05-08T19:38:40.612Z,14.22
2023-05-08T19:41:08.700Z,14.18
2023-05-08T19:43:38.269Z,14.14
2023-05-08T19:46:06.358Z,14.17
2023-05-08T19:48:34.484Z,14.26
2023-05-08T19:51:07.261Z,14.27
2023-05-08T19:53:35.414Z,14.24
2023-05-08T19:56:04.396Z,14.23
2023-05-08T19:58:33.691Z,14.21
2023-05-08T20:01:03.809Z,14.35
2023-05-08T20:03:32.879Z,14.24
2023-05-08T20:06:01.964Z,14.27
2023-05-08T20:08:30.168Z,14.24
2023-05-08T20:11:02.732Z,14.18
2023-05-08T20:13:31.313Z,14.22
2023-05-08T20:15:59.552Z,14.30
2023-05-08T20:18:28.999Z,14.25
2023-05-08T20:20:56.916Z,14.14
2023-05-08T20:23:24.874Z,14.16
2023-05-08T20:25:54.188Z,14.17
2023-05-08T20:28:25.976Z,14.34
2023-05-08T20:30:54.211Z,14.24
2023-05-08T20:33:22.167Z,14.15
2023-05-08T20:35:51.593Z,14.21
2023-05-08T20:38:19.685Z,14.28
2023-05-08T20:40:47.801Z,14.19
2023-05-08T20:43:16.795Z,14.16
2023-05-08T20:45:44.824Z,14.17
2023-05-08T20:48:12.793Z,14.18
2023-05-08T20:50:40.719Z,14.12
2023-05-08T20:53:10.062Z,14.17
2023-05-08T20:55:38.091Z,14.14
2023-05-08T20:58:07.161Z,14.18
2023-05-08T21:00:35.315Z,14.28
2023-05-08T21:03:03.798Z,14.22
2023-05-08T21:05:31.968Z,14.31
2023-05-08T21:08:02.542Z,14.33
2023-05-08T21:10:32.054Z,14.21
2023-05-08T21:13:00.037Z,14.33
2023-05-08T21:15:28.140Z,14.23
2023-05-08T21:17:57.014Z,14.26
2023-05-08T21:20:25.911Z,14.22
2023-05-08T21:22:54.436Z,14.23
2023-05-08T21:25:26.353Z,14.18
2023-05-08T21:27:56.436Z,14.18
2023-05-08T21:30:25.024Z,14.18
2023-05-08T21:32:53.573Z,14.24
2023-05-08T21:35:22.239Z,14.17
2023-05-08T21:37:53.945Z,14.11
2023-05-08T21:40:22.921Z,14.23
2023-05-08T21:42:51.025Z,14.12
2023-05-08T21:45:20.421Z,14.05
2023-05-08T21:47:51.496Z,14.04
2023-05-08T21:50:19.898Z,14.15
2023-05-08T21:52:48.241Z,14.11
2023-05-08T21:55:18.755Z,14.08
2023-05-08T21:57:46.754Z,14.06
2023-05-08T22:00:23.873Z,14.02
2023-05-08T22:02:55.108Z,14.07
2023-05-08T22:05:24.111Z,14.03
2023-05-08T22:07:52.261Z,13.94
2023-05-08T22:10:21.563Z,13.92
2023-05-08T22:12:49.792Z,13.97
2023-05-08T22:15:29.255Z,13.92
2023-05-08T22:18:02.768Z,13.94
2023-05-08T22:20:31.942Z,13.97
2023-05-08T22:23:00.209Z,13.95
2023-05-08T22:25:28.585Z,13.91
2023-05-08T22:27:56.850Z,13.87
2023-05-08T22:30:25.285Z,13.86
2023-05-08T22:32:55.594Z,13.85
2023-05-08T22:35:26.887Z,13.93
2023-05-08T22:42:05.362Z,13.87
2023-05-08T22:44:33.665Z,13.89
2023-05-08T22:47:02.180Z,13.84
2023-05-08T22:49:30.622Z,13.83
2023-05-08T22:52:48.242Z,13.82
2023-05-08T22:55:17.900Z,13.83
2023-05-08T22:57:46.134Z,13.87
2023-05-08T23:00:16.418Z,13.84
2023-05-08T23:02:44.788Z,13.84
2023-05-08T23:05:13.163Z,13.91
2023-05-08T23:07:41.971Z,13.87
2023-05-08T23:10:10.708Z,13.85
2023-05-08T23:12:40.076Z,13.84
2023-05-08T23:15:09.134Z,13.87
2023-05-08T23:17:37.150Z,13.86
2023-05-08T23:20:05.980Z,13.85
2023-05-08T23:22:34.170Z,13.89
2023-05-08T23:25:02.147Z,13.90
2023-05-08T23:27:30.145Z,13.86
2023-05-08T23:29:59.625Z,13.91
2023-05-08T23:32:27.591Z,13.89
2023-05-08T23:34:55.812Z,13.90
2023-05-08T23:37:23.866Z,13.85
2023-05-08T23:39:51.831Z,13.88
2023-05-08T23:42:20.442Z,13.86
2023-05-08T23:44:48.399Z,13.91
2023-05-08T23:47:19.254Z,13.91
2023-05-08T23:49:47.337Z,13.95
2023-05-08T23:52:15.389Z,13.89
2023-05-08T23:54:43.410Z,13.84
2023-05-08T23:57:36.732Z,13.85
